createdAt,value
2022-08-17T00:00:43.295Z,14.07
2022-08-17T00:03:35.886Z,14.90
2022-08-17T00:06:25.221Z,14.85
2022-08-17T00:09:10.508Z,14.57
2022-08-17T00:12:51.380Z,14.57
2022-08-17T00:15:12.066Z,14.85
2022-08-17T00:17:57.132Z,15.15
2022-08-17T00:20:42.414Z,14.93
2022-08-17T00:23:28.169Z,15.18
2022-08-17T00:26:14.414Z,15.43
2022-08-17T00:29:00.502Z,15.52
2022-08-17T00:31:45.600Z,16.02
2022-08-17T00:34:30.864Z,16.50
2022-08-17T00:37:16.959Z,16.17
2022-08-17T00:40:02.238Z,17.63
2022-08-17T00:42:49.559Z,17.48
2022-08-17T00:45:34.818Z,19.45
2022-08-17T00:48:29.017Z,19.88
2022-08-17T00:51:25.903Z,19.85
2022-08-17T00:54:10.846Z,19.67
2022-08-17T00:57:04.826Z,19.35
2022-08-17T01:00:01.813Z,17.58
2022-08-17T01:02:48.967Z,18.98
2022-08-17T01:05:38.351Z,19.30
2022-08-17T01:08:31.083Z,19.35
2022-08-17T01:11:17.179Z,20.02
2022-08-17T01:14:03.150Z,19.42
2022-08-17T01:16:50.602Z,20.95
2022-08-17T01:19:40.074Z,20.10
2022-08-17T01:22:25.578Z,19.85
2022-08-17T01:25:12.545Z,19.98
2022-08-17T01:27:57.602Z,18.90
2022-08-17T01:30:57.437Z,17.75
2022-08-17T01:33:44.495Z,16.50
2022-08-17T01:36:30.436Z,16.00
2022-08-17T01:39:30.693Z,15.23
2022-08-17T01:42:24.840Z,15.63
2022-08-17T01:45:20.724Z,15.93
2022-08-17T01:48:05.852Z,15.30
2022-08-17T01:50:51.960Z,15.73
2022-08-17T01:53:40.646Z,16.75
2022-08-17T01:56:27.905Z,16.10
2022-08-17T01:59:13.570Z,15.95
2022-08-17T02:02:00.777Z,15.77
2022-08-17T02:04:45.943Z,17.02
2022-08-17T02:07:30.855Z,16.80
2022-08-17T02:10:20.099Z,17.35
2022-08-17T02:13:05.865Z,15.27
2022-08-17T02:15:51.125Z,16.63
2022-08-17T02:18:36.469Z,15.73
2022-08-17T02:21:21.594Z,15.63
2022-08-17T02:24:10.836Z,15.60
2022-08-17T02:26:56.068Z,15.95
2022-08-17T02:29:41.050Z,15.93
2022-08-17T02:32:28.256Z,15.57
2022-08-17T02:35:14.471Z,14.32
2022-08-17T02:38:06.297Z,14.60
2022-08-17T02:40:51.825Z,15.07
2022-08-17T02:43:37.094Z,15.57
2022-08-17T02:46:22.640Z,15.50
2022-08-17T02:49:07.618Z,16.13
2022-08-17T02:51:52.575Z,16.15
2022-08-17T02:54:39.854Z,15.73
2022-08-17T02:57:27.044Z,16.60
2022-08-17T03:00:17.638Z,17.30
2022-08-17T03:03:05.553Z,16.65
2022-08-17T03:05:53.991Z,16.23
2022-08-17T03:08:39.113Z,17.25
2022-08-17T03:11:24.386Z,16.83
2022-08-17T03:14:09.659Z,16.50
2022-08-17T03:16:54.878Z,16.83
2022-08-17T03:19:42.902Z,16.90
2022-08-17T03:22:36.842Z,16.00
2022-08-17T03:25:27.457Z,15.93
2022-08-17T03:28:13.758Z,17.33
2022-08-17T03:30:59.046Z,17.08
2022-08-17T03:33:44.646Z,17.77
2022-08-17T03:36:29.791Z,18.35
2022-08-17T03:39:20.938Z,18.85
2022-08-17T03:42:32.564Z,19.48
2022-08-17T03:45:42.714Z,19.30
2022-08-17T03:48:47.186Z,20.35
2022-08-17T03:51:50.925Z,18.23
2022-08-17T03:54:55.122Z,19.15
2022-08-17T03:57:40.545Z,19.08
2022-08-17T04:00:27.686Z,16.77
2022-08-17T04:03:13.859Z,17.35
2022-08-17T04:06:00.299Z,16.63
2022-08-17T04:08:45.687Z,16.25
2022-08-17T04:11:30.934Z,16.95
2022-08-17T04:14:16.278Z,15.45
2022-08-17T04:17:01.519Z,15.75
2022-08-17T04:19:46.979Z,15.88
2022-08-17T04:22:34.328Z,15.60
2022-08-17T04:25:19.451Z,15.90
2022-08-17T04:28:15.521Z,15.45
2022-08-17T04:31:01.518Z,14.63
2022-08-17T04:33:46.945Z,15.00
2022-08-17T04:36:32.233Z,15.38
2022-08-17T04:39:17.485Z,14.80
2022-08-17T04:42:16.938Z,15.23
2022-08-17T04:45:04.475Z,15.63
2022-08-17T04:47:49.605Z,18.55
2022-08-17T04:50:36.274Z,20.05
2022-08-17T04:53:21.737Z,21.83
2022-08-17T04:56:07.902Z,23.98
2022-08-17T04:59:00.865Z,24.02
2022-08-17T05:01:50.913Z,22.70
2022-08-17T05:04:36.118Z,23.80
2022-08-17T05:07:24.605Z,25.45
2022-08-17T05:10:11.293Z,26.88
2022-08-17T05:13:02.009Z,24.48
2022-08-17T05:15:49.082Z,22.90
2022-08-17T05:18:34.799Z,22.05
2022-08-17T05:21:21.642Z,22.77
2022-08-17T05:24:09.671Z,22.98
2022-08-17T05:27:14.331Z,23.90
2022-08-17T05:30:04.545Z,25.55
2022-08-17T05:32:57.069Z,26.58
2022-08-17T05:35:46.913Z,27.35
2022-08-17T05:41:17.212Z,27.73
2022-08-17T05:44:05.212Z,28.65
2022-08-17T05:46:53.201Z,27.88
2022-08-17T05:49:38.678Z,27.77
2022-08-17T05:52:41.414Z,27.70
2022-08-17T05:55:35.598Z,29.02
2022-08-17T05:58:52.804Z,22.67
2022-08-17T06:01:51.431Z,20.75
2022-08-17T06:05:03.382Z,22.17
2022-08-17T06:08:00.799Z,23.15
2022-08-17T06:11:20.107Z,22.45
2022-08-17T06:14:07.930Z,23.73
2022-08-17T06:16:59.974Z,23.45
2022-08-17T06:19:48.164Z,26.63
2022-08-17T06:22:37.894Z,26.02
2022-08-17T06:28:34.297Z,25.40
2022-08-17T06:31:28.021Z,23.75
2022-08-17T06:34:13.577Z,25.33
2022-08-17T06:37:18.995Z,26.45
2022-08-17T06:40:22.830Z,27.30
2022-08-17T06:43:40.191Z,26.45
2022-08-17T06:46:36.159Z,27.58
2022-08-17T06:49:40.525Z,28.77
2022-08-17T06:52:43.387Z,29.25
2022-08-17T06:55:50.178Z,30.80
2022-08-17T06:58:40.129Z,31.33
2022-08-17T07:01:33.325Z,31.13
2022-08-17T07:04:23.809Z,31.42
2022-08-17T07:07:28.989Z,28.98
2022-08-17T07:10:14.757Z,30.30
2022-08-17T07:13:13.936Z,28.88
2022-08-17T07:16:07.682Z,28.98
2022-08-17T07:18:54.791Z,28.92
2022-08-17T07:21:52.150Z,31.38
2022-08-17T07:25:06.490Z,29.85
2022-08-17T07:27:55.790Z,29.98
2022-08-17T07:30:49.186Z,31.80
2022-08-17T07:33:36.811Z,30.38
2022-08-17T07:36:30.095Z,31.17
2022-08-17T07:39:27.714Z,29.25
2022-08-17T07:42:12.707Z,29.25
2022-08-17T07:44:58.079Z,27.05
2022-08-17T07:48:09.050Z,27.80
2022-08-17T07:50:54.460Z,27.08
2022-08-17T07:53:39.799Z,26.27
2022-08-17T07:56:45.252Z,25.20
2022-08-17T07:59:33.452Z,26.60
2022-08-17T08:02:26.459Z,25.65
2022-08-17T08:05:50.243Z,25.17
2022-08-17T08:08:50.413Z,24.30
2022-08-17T08:11:39.266Z,25.58
2022-08-17T08:14:33.926Z,26.88
2022-08-17T08:17:23.893Z,29.27
2022-08-17T08:20:51.106Z,33.88
2022-08-17T08:23:44.118Z,34.97
2022-08-17T08:26:55.469Z,36.83
2022-08-17T08:29:52.674Z,37.63
2022-08-17T08:33:07.549Z,36.22
2022-08-17T08:37:14.049Z,36.00
2022-08-17T08:39:32.564Z,35.70
2022-08-17T08:42:37.178Z,33.30
2022-08-17T08:45:46.772Z,34.50
2022-08-17T08:49:06.472Z,34.83
2022-08-17T08:52:02.577Z,33.67
2022-08-17T08:54:53.923Z,33.63
2022-08-17T08:58:32.198Z,34.42
2022-08-17T09:01:48.267Z,33.92
2022-08-17T09:05:14.232Z,32.80
2022-08-17T09:08:21.354Z,27.27
2022-08-17T09:11:18.284Z,23.80
2022-08-17T09:14:28.223Z,27.88
2022-08-17T09:17:20.612Z,29.33
2022-08-17T09:20:27.614Z,26.60
2022-08-17T09:23:19.593Z,27.15
2022-08-17T09:26:25.486Z,26.27
2022-08-17T09:29:14.218Z,22.52
2022-08-17T09:32:04.571Z,23.88
2022-08-17T09:35:01.480Z,25.38
2022-08-17T09:38:00.479Z,24.00
2022-08-17T09:40:48.859Z,25.73
2022-08-17T09:43:48.964Z,27.05
2022-08-17T09:46:44.015Z,24.77
2022-08-17T09:49:38.200Z,27.48
2022-08-17T09:52:27.187Z,25.20
2022-08-17T09:55:12.166Z,25.73
2022-08-17T09:58:16.880Z,23.90
2022-08-17T10:01:31.375Z,24.60
2022-08-17T10:04:38.763Z,25.98
2022-08-17T10:07:40.522Z,25.88
2022-08-17T10:10:32.495Z,24.58
2022-08-17T10:13:53.167Z,25.13
2022-08-17T10:16:50.000Z,23.38
2022-08-17T10:19:46.992Z,18.80
2022-08-17T10:23:01.128Z,19.77
2022-08-17T10:26:09.199Z,18.35
2022-08-17T10:29:01.835Z,21.50
2022-08-17T10:32:10.738Z,22.20
2022-08-17T10:35:10.762Z,23.52
2022-08-17T10:38:14.645Z,23.25
2022-08-17T10:41:24.082Z,19.92
2022-08-17T10:44:39.557Z,20.80
2022-08-17T10:47:17.304Z,19.48
2022-08-17T10:50:40.635Z,18.08
2022-08-17T10:53:31.810Z,17.13
2022-08-17T10:56:21.676Z,16.35
2022-08-17T10:59:07.791Z,14.07
2022-08-17T11:02:04.170Z,9.75
2022-08-17T11:04:57.220Z,7.88
2022-08-17T11:07:43.757Z,9.90
2022-08-17T11:10:53.785Z,9.60
2022-08-17T11:13:44.867Z,11.05
2022-08-17T11:16:49.738Z,8.57
2022-08-17T11:20:04.852Z,8.32
2022-08-17T11:23:05.109Z,9.45
2022-08-17T11:26:04.101Z,9.80
2022-08-17T11:28:52.648Z,9.35
2022-08-17T11:31:46.484Z,10.00
2022-08-17T11:34:34.926Z,10.32
2022-08-17T11:37:20.246Z,9.55
2022-08-17T11:40:58.989Z,10.70
2022-08-17T11:43:56.285Z,9.27
2022-08-17T11:47:26.166Z,9.27
2022-08-17T11:50:49.762Z,9.23
2022-08-17T11:53:37.977Z,9.23
2022-08-17T11:56:36.061Z,6.53
2022-08-17T11:59:32.787Z,7.95
2022-08-17T12:02:32.897Z,7.18
2022-08-17T12:05:18.065Z,6.72
2022-08-17T12:08:08.175Z,6.72
2022-08-17T12:10:53.317Z,6.93
2022-08-17T12:13:50.090Z,6.10
2022-08-17T12:16:35.193Z,6.35
2022-08-17T12:19:21.647Z,6.13
2022-08-17T12:22:12.733Z,7.20
2022-08-17T12:25:04.874Z,7.53
2022-08-17T12:28:06.352Z,6.80
2022-08-17T12:30:53.244Z,6.95
2022-08-17T12:33:43.750Z,7.47
2022-08-17T12:36:29.326Z,6.63
2022-08-17T12:39:21.326Z,6.93
2022-08-17T12:42:25.455Z,7.65
2022-08-17T12:45:32.561Z,7.50
2022-08-17T12:48:26.349Z,7.65
2022-08-17T12:51:12.680Z,8.75
2022-08-17T12:53:57.931Z,8.15
2022-08-17T12:56:46.002Z,7.43
2022-08-17T12:59:33.238Z,6.75
2022-08-17T13:02:38.696Z,7.15
2022-08-17T13:05:42.199Z,6.88
2022-08-17T13:08:32.668Z,6.85
2022-08-17T13:11:24.775Z,7.13
2022-08-17T13:14:10.598Z,7.40
2022-08-17T13:17:01.511Z,7.35
2022-08-17T13:19:50.938Z,7.93
2022-08-17T13:25:21.597Z,9.07
2022-08-17T13:28:18.540Z,7.05
2022-08-17T13:31:32.261Z,2.33
2022-08-17T13:34:16.985Z,2.20
2022-08-17T13:37:34.580Z,1.65
2022-08-17T13:40:19.533Z,2.00
2022-08-17T13:43:05.037Z,1.50
2022-08-17T13:45:52.197Z,1.88
2022-08-17T13:48:37.638Z,2.13
2022-08-17T13:51:29.942Z,2.03
2022-08-17T13:54:21.074Z,2.47
2022-08-17T13:57:11.991Z,2.28
2022-08-17T14:00:11.984Z,2.67
2022-08-17T14:02:58.761Z,2.20
2022-08-17T14:05:45.936Z,1.80
2022-08-17T14:08:31.207Z,1.90
2022-08-17T14:11:17.575Z,1.83
2022-08-17T14:14:03.977Z,2.22
2022-08-17T14:16:49.918Z,1.95
2022-08-17T14:19:36.143Z,1.77
2022-08-17T14:22:26.931Z,1.75
2022-08-17T14:25:15.128Z,1.88
2022-08-17T14:28:00.492Z,1.80
2022-08-17T14:30:46.319Z,1.43
2022-08-17T14:33:31.491Z,1.52
2022-08-17T14:36:16.640Z,1.60
2022-08-17T14:39:01.814Z,1.67
2022-08-17T14:41:47.489Z,1.88
2022-08-17T14:44:32.570Z,1.40
2022-08-17T14:47:17.794Z,1.85
2022-08-17T14:50:04.704Z,1.92
2022-08-17T14:52:55.804Z,1.67
2022-08-17T14:55:45.719Z,2.05
2022-08-17T14:58:32.542Z,1.88
2022-08-17T15:01:19.973Z,2.30
2022-08-17T15:04:05.792Z,2.15
2022-08-17T15:06:50.894Z,2.08
2022-08-17T15:09:35.830Z,2.13
2022-08-17T15:12:25.601Z,2.40
2022-08-17T15:15:17.273Z,2.30
2022-08-17T15:18:03.293Z,2.55
2022-08-17T15:20:50.080Z,2.65
2022-08-17T15:23:35.272Z,2.50
2022-08-17T15:26:26.055Z,2.60
2022-08-17T15:29:11.789Z,2.75
2022-08-17T15:32:00.586Z,2.40
2022-08-17T15:34:46.064Z,2.80
2022-08-17T15:37:32.085Z,2.45
2022-08-17T15:40:17.499Z,2.03
2022-08-17T15:43:11.450Z,2.20
2022-08-17T15:46:00.657Z,2.58
2022-08-17T15:48:49.079Z,2.05
2022-08-17T15:51:35.630Z,2.65
2022-08-17T15:54:22.707Z,2.63
2022-08-17T15:57:08.603Z,2.65
2022-08-17T15:59:58.558Z,2.80
2022-08-17T16:03:14.331Z,2.92
2022-08-17T16:05:50.132Z,3.28
2022-08-17T16:08:37.619Z,3.30
2022-08-17T16:11:23.038Z,3.15
2022-08-17T16:14:08.229Z,2.97
2022-08-17T16:16:53.553Z,3.30
2022-08-17T16:19:40.980Z,3.63
2022-08-17T16:22:38.778Z,3.00
2022-08-17T16:25:52.471Z,3.10
2022-08-17T16:28:36.226Z,3.40
2022-08-17T16:31:21.774Z,3.45
2022-08-17T16:34:17.503Z,3.28
2022-08-17T16:37:04.385Z,3.58
2022-08-17T16:39:49.808Z,3.60
2022-08-17T16:42:37.045Z,3.72
2022-08-17T16:45:28.053Z,3.60
2022-08-17T16:48:15.286Z,3.50
2022-08-17T16:51:04.160Z,3.88
2022-08-17T16:53:59.166Z,3.58
2022-08-17T16:56:44.549Z,3.50
2022-08-17T16:59:41.968Z,3.20
2022-08-17T17:02:34.045Z,3.60
2022-08-17T17:05:43.417Z,3.70
2022-08-17T17:08:40.686Z,3.70
2022-08-17T17:11:43.463Z,3.40
2022-08-17T17:14:42.952Z,3.78
2022-08-17T17:17:32.574Z,3.67
2022-08-17T17:23:06.923Z,3.55
2022-08-17T17:26:20.887Z,3.78
2022-08-17T17:29:16.238Z,3.70
2022-08-17T17:32:01.382Z,3.95
2022-08-17T17:34:53.281Z,4.18
2022-08-17T17:37:42.762Z,4.55
2022-08-17T17:40:40.273Z,4.82
2022-08-17T17:43:38.916Z,4.10
2022-08-17T17:46:35.238Z,4.70
2022-08-17T17:49:20.915Z,4.75
2022-08-17T17:52:29.591Z,4.63
2022-08-17T17:55:26.939Z,4.60
2022-08-17T17:58:19.610Z,4.70
2022-08-17T18:01:18.653Z,4.32
2022-08-17T18:04:37.943Z,4.10
2022-08-17T18:07:32.399Z,3.90
2022-08-17T18:10:29.497Z,3.92
2022-08-17T18:13:37.952Z,4.40
2022-08-17T18:16:23.370Z,6.38
2022-08-17T18:19:20.594Z,5.53
2022-08-17T18:22:19.701Z,4.80
2022-08-17T18:25:39.880Z,4.68
2022-08-17T18:28:30.112Z,4.68
2022-08-17T18:31:15.075Z,4.50
2022-08-17T18:34:46.040Z,4.43
2022-08-17T18:37:34.411Z,4.50
2022-08-17T18:40:19.943Z,4.22
2022-08-17T18:43:13.419Z,4.60
2022-08-17T18:46:37.693Z,4.47
2022-08-17T18:49:28.476Z,4.40
2022-08-17T18:52:29.083Z,4.97
2022-08-17T18:55:23.508Z,4.53
2022-08-17T18:58:24.466Z,4.85
2022-08-17T19:01:20.690Z,4.72
2022-08-17T19:04:15.087Z,4.85
2022-08-17T19:07:11.486Z,4.30
2022-08-17T19:10:06.958Z,5.22
2022-08-17T19:13:00.648Z,5.05
2022-08-17T19:16:12.080Z,5.40
2022-08-17T19:19:14.455Z,5.00
2022-08-17T19:22:30.659Z,5.40
2022-08-17T19:25:27.121Z,4.78
2022-08-17T19:28:32.913Z,5.15
2022-08-17T19:31:22.202Z,5.47
2022-08-17T19:34:07.433Z,5.32
2022-08-17T19:37:16.911Z,4.65
2022-08-17T19:40:48.765Z,5.40
2022-08-17T19:43:42.903Z,5.28
2022-08-17T19:46:58.442Z,5.82
2022-08-17T19:50:08.714Z,5.85
2022-08-17T19:53:07.283Z,5.97
2022-08-17T19:56:07.086Z,6.05
2022-08-17T19:58:58.119Z,6.18
2022-08-17T20:01:52.753Z,6.35
2022-08-17T20:04:42.933Z,6.80
2022-08-17T20:10:47.310Z,7.75
2022-08-17T20:14:09.493Z,7.13
2022-08-17T20:16:59.289Z,6.95
2022-08-17T20:19:53.207Z,6.65
2022-08-17T20:22:54.793Z,7.43
2022-08-17T20:25:51.989Z,7.57
2022-08-17T20:28:39.038Z,7.35
2022-08-17T20:31:44.632Z,7.82
2022-08-17T20:34:39.626Z,8.15
2022-08-17T20:37:33.966Z,7.78
2022-08-17T20:40:26.385Z,6.82
2022-08-17T20:43:29.794Z,7.30
2022-08-17T20:46:23.908Z,7.32
2022-08-17T20:49:08.833Z,7.15
2022-08-17T20:52:08.888Z,7.00
2022-08-17T20:57:40.061Z,7.30
2022-08-17T21:00:28.023Z,8.15
2022-08-17T21:03:50.516Z,8.57
2022-08-17T21:07:22.407Z,8.10
2022-08-17T21:10:13.890Z,7.80
2022-08-17T21:13:04.374Z,7.72
2022-08-17T21:15:53.113Z,8.20
2022-08-17T21:19:00.019Z,8.18
2022-08-17T21:21:46.517Z,8.73
2022-08-17T21:24:45.392Z,8.77
2022-08-17T21:27:30.614Z,8.98
2022-08-17T21:30:47.445Z,8.48
2022-08-17T21:33:34.116Z,8.13
2022-08-17T21:36:25.532Z,8.95
2022-08-17T21:39:39.520Z,8.75
2022-08-17T21:42:29.535Z,8.63
2022-08-17T21:45:20.623Z,9.00
2022-08-17T21:48:16.469Z,9.07
2022-08-17T21:51:14.433Z,8.55
2022-08-17T21:54:03.740Z,9.23
2022-08-17T21:56:49.117Z,8.20
2022-08-17T21:59:38.743Z,8.52
2022-08-17T22:02:28.275Z,8.80
2022-08-17T22:05:15.276Z,8.63
2022-08-17T22:08:16.548Z,9.20
2022-08-17T22:11:02.436Z,9.32
2022-08-17T22:13:47.317Z,9.85
2022-08-17T22:16:34.786Z,9.75
2022-08-17T22:19:21.079Z,9.40
2022-08-17T22:22:09.654Z,9.18
2022-08-17T22:24:57.944Z,10.40
2022-08-17T22:27:45.678Z,11.10
2022-08-17T22:30:32.830Z,11.23
2022-08-17T22:33:33.311Z,11.75
2022-08-17T22:36:38.723Z,11.57
2022-08-17T22:39:23.789Z,12.00
2022-08-17T22:42:14.500Z,12.48
2022-08-17T22:45:00.304Z,13.20
2022-08-17T22:47:48.787Z,14.43
2022-08-17T22:50:34.216Z,14.05
2022-08-17T22:53:41.351Z,14.18
2022-08-17T22:56:45.211Z,15.38
2022-08-17T22:59:57.494Z,15.40
2022-08-17T23:03:09.083Z,14.23
2022-08-17T23:06:08.065Z,13.88
2022-08-17T23:08:57.929Z,12.75
2022-08-17T23:11:49.970Z,13.40
2022-08-17T23:14:39.184Z,13.00
2022-08-17T23:17:24.411Z,11.60
2022-08-17T23:20:12.957Z,12.00
2022-08-17T23:22:59.586Z,12.57
2022-08-17T23:25:46.251Z,15.00
2022-08-17T23:28:31.194Z,15.65
2022-08-17T23:31:19.859Z,16.48
2022-08-17T23:34:15.080Z,17.48
2022-08-17T23:37:02.252Z,17.38
2022-08-17T23:39:47.371Z,16.40
2022-08-17T23:42:33.644Z,17.00
2022-08-17T23:45:20.059Z,16.83
2022-08-17T23:48:07.812Z,15.82
2022-08-17T23:50:54.362Z,16.15
2022-08-17T23:53:45.132Z,15.07
2022-08-17T23:56:33.378Z,15.35
2022-08-17T23:59:20.467Z,15.38
